Hyundai Shanghai — 5BZM3 — position and weather

sailwx.info

Track history (hours):
 
Tides and Currents Weather Stations Pressure Air Temp Water Temp Dewpoint Dewpoint Depression Visibility Wind Speed Wind Dir Waves Ship Positions

Hyundai Shanghai

Last reported at 2018-Jun-18 20:45 UTC. Time now 2018-Jun-19 00:53 UTC.
Position N 22°51' E 120°02'.

Length 304 m; draft 12.3 m.

Type: Ship (hazmat cat A). MMSI: 212353000.

Date/timePositionNaut miles runAvg speedWind from/ knotsBaromVisibWave heightAir tempDewpointWater temp
2018-Jun-18 20:45N 22°51' E 120°02'417.7
2018-Jun-18 20:30N 22°47' E 120°05'917.9
2018-Jun-18 20:00N 22°39' E 120°10'815.7
2018-Jun-18 19:30N 22°33' E 120°15'4 8.7
2018-Jun-18 18:59N 22°33' E 120°20'0 0.0
2018-Jun-18 18:27N 22°33' E 120°20'0 0.0
2018-Jun-18 17:57N 22°33' E 120°20'0 0.0
2018-Jun-18 17:27N 22°33' E 120°20'0 0.0
2018-Jun-18 16:57N 22°33' E 120°20'0 0.0
2018-Jun-18 16:27N 22°33' E 120°20'0 0.0
2018-Jun-18 15:45N 22°33' E 120°20'0 0.0
2018-Jun-18 15:09N 22°33' E 120°20'0 0.0
2018-Jun-18 14:51N 22°33' E 120°20'0 0.0
2018-Jun-18 14:27N 22°33' E 120°20'0 0.0
2018-Jun-18 13:57N 22°33' E 120°20'0 0.0
2018-Jun-18 13:27N 22°33' E 120°20'0 0.0
2018-Jun-18 12:51N 22°33' E 120°20'0 0.0
2018-Jun-18 12:27N 22°33' E 120°20'0 0.0
2018-Jun-18 11:57N 22°33' E 120°20'0 0.0
2018-Jun-18 11:21N 22°33' E 120°20'0 0.0
2018-Jun-18 10:57N 22°33' E 120°20'0 0.6
2018-Jun-18 10:30N 22°33' E 120°19'3 6.9
2018-Jun-18 10:01N 22°32' E 120°16'612.4
2018-Jun-18 09:30N 22°31' E 120°09'714.4
2018-Jun-18 09:00N 22°30' E 120°01'715.0
2018-Jun-18 08:30N 22°28' E 119°54'321 7.5
2018-Jun-16 13:44N 22°19' E 114°07'1 0.1
2018-Jun-16 07:58N 22°20' E 114°08'0 0.0
2018-Jun-16 01:34N 22°20' E 114°08'0 0.0
2018-Jun-16 01:16N 22°20' E 114°08'0 0.1
2018-Jun-16 00:58N 22°20' E 114°08'  
Track history (hours):
 
Tides and Currents Weather Stations Pressure Air Temp Water Temp Dewpoint Dewpoint Depression Visibility Wind Speed Wind Dir Waves Ship Positions

Hyundai Shanghai

Last reported at 2018-Jun-18 20:45 UTC. Time now 2018-Jun-19 00:53 UTC.
Position N 22°51' E 120°02'.

Length 304 m; draft 12.3 m.

Type: Ship (hazmat cat A). MMSI: 212353000.

Date/timePositionNaut miles runAvg speedWind from/ knotsBaromVisibWave heightAir tempDewpointWater temp
2018-Jun-18 20:45N 22°51' E 120°02'417.7
2018-Jun-18 20:30N 22°47' E 120°05'917.9
2018-Jun-18 20:00N 22°39' E 120°10'815.7
2018-Jun-18 19:30N 22°33' E 120°15'4 8.7
2018-Jun-18 18:59N 22°33' E 120°20'0 0.0
2018-Jun-18 18:27N 22°33' E 120°20'0 0.0
2018-Jun-18 17:57N 22°33' E 120°20'0 0.0
2018-Jun-18 17:27N 22°33' E 120°20'0 0.0
2018-Jun-18 16:57N 22°33' E 120°20'0 0.0
2018-Jun-18 16:27N 22°33' E 120°20'0 0.0
2018-Jun-18 15:45N 22°33' E 120°20'0 0.0
2018-Jun-18 15:09N 22°33' E 120°20'0 0.0
2018-Jun-18 14:51N 22°33' E 120°20'0 0.0
2018-Jun-18 14:27N 22°33' E 120°20'0 0.0
2018-Jun-18 13:57N 22°33' E 120°20'0 0.0
2018-Jun-18 13:27N 22°33' E 120°20'0 0.0
2018-Jun-18 12:51N 22°33' E 120°20'0 0.0
2018-Jun-18 12:27N 22°33' E 120°20'0 0.0
2018-Jun-18 11:57N 22°33' E 120°20'0 0.0
2018-Jun-18 11:21N 22°33' E 120°20'0 0.0
2018-Jun-18 10:57N 22°33' E 120°20'0 0.6
2018-Jun-18 10:30N 22°33' E 120°19'3 6.9
2018-Jun-18 10:01N 22°32' E 120°16'612.4
2018-Jun-18 09:30N 22°31' E 120°09'714.4
2018-Jun-18 09:00N 22°30' E 120°01'715.0
2018-Jun-18 08:30N 22°28' E 119°54'321 7.5
2018-Jun-16 13:44N 22°19' E 114°07'1 0.1
2018-Jun-16 07:58N 22°20' E 114°08'0 0.0
2018-Jun-16 01:34N 22°20' E 114°08'0 0.0
2018-Jun-16 01:16N 22°20' E 114°08'0 0.1
2018-Jun-16 00:58N 22°20' E 114°08'  

Dump ship's entire track history